createdAt,value
2019-02-24T00:02:06.027Z,6.00
2019-02-24T00:04:32.758Z,4.70
2019-02-24T00:06:59.485Z,4.37
2019-02-24T00:09:26.217Z,4.40
2019-02-24T00:11:52.953Z,5.47
2019-02-24T00:14:20.478Z,4.30
2019-02-24T00:16:47.255Z,5.33
2019-02-24T00:19:13.981Z,3.90
2019-02-24T00:21:40.714Z,4.07
2019-02-24T00:24:07.436Z,4.23
2019-02-24T00:26:34.185Z,4.77
2019-02-24T00:29:00.999Z,4.90
2019-02-24T00:31:27.726Z,3.60
2019-02-24T00:33:54.466Z,3.27
2019-02-24T00:36:21.209Z,3.10
2019-02-24T00:38:47.965Z,4.73
2019-02-24T00:41:14.683Z,2.90
2019-02-24T00:43:41.442Z,4.67
2019-02-24T00:46:08.153Z,4.20
2019-02-24T00:48:34.921Z,3.73
2019-02-24T00:51:01.637Z,3.30
2019-02-24T00:53:28.593Z,3.13
2019-02-24T00:55:55.313Z,5.30
2019-02-24T00:58:22.058Z,3.87
2019-02-24T01:00:48.789Z,3.40
2019-02-24T01:03:15.542Z,5.47
2019-02-24T01:05:42.272Z,4.23
2019-02-24T01:08:09.009Z,5.63
2019-02-24T01:10:35.726Z,4.60
2019-02-24T01:13:02.465Z,3.67
2019-02-24T01:15:29.217Z,4.33
2019-02-24T01:17:55.949Z,3.70
2019-02-24T01:20:22.666Z,5.03
2019-02-24T01:22:49.417Z,3.40
2019-02-24T01:25:16.142Z,4.20
2019-02-24T01:27:42.962Z,5.43
2019-02-24T01:30:09.712Z,4.55
2019-02-24T01:32:36.454Z,3.27
2019-02-24T01:35:03.211Z,4.10
2019-02-24T01:37:29.950Z,4.00
2019-02-24T01:39:56.657Z,5.42
2019-02-24T01:42:23.417Z,4.70
2019-02-24T01:44:50.135Z,4.50
2019-02-24T01:47:16.881Z,5.40
2019-02-24T01:49:43.603Z,5.58
2019-02-24T01:52:10.359Z,6.13
2019-02-24T01:54:37.085Z,4.62
2019-02-24T01:57:03.825Z,4.47
2019-02-24T01:59:30.537Z,5.70
2019-02-24T02:01:57.262Z,3.97
2019-02-24T02:04:23.997Z,5.27
2019-02-24T02:06:50.717Z,4.60
2019-02-24T02:09:18.402Z,4.30
2019-02-24T02:11:45.129Z,5.13
2019-02-24T02:14:11.894Z,4.93
2019-02-24T02:16:38.622Z,5.25
2019-02-24T02:19:05.354Z,5.70
2019-02-24T02:21:32.069Z,5.43
2019-02-24T02:23:58.815Z,6.27
2019-02-24T02:26:25.529Z,7.00
2019-02-24T02:28:52.269Z,5.80
2019-02-24T02:31:19.008Z,5.23
2019-02-24T02:33:45.794Z,4.37
2019-02-24T02:36:12.532Z,3.70
2019-02-24T02:38:39.268Z,4.53
2019-02-24T02:41:05.990Z,5.50
2019-02-24T02:43:32.729Z,5.23
2019-02-24T02:45:59.449Z,4.83
2019-02-24T02:48:26.193Z,5.30
2019-02-24T02:50:52.919Z,4.87
2019-02-24T02:53:19.645Z,4.93
2019-02-24T02:55:46.370Z,7.13
2019-02-24T02:58:13.115Z,5.20
2019-02-24T03:00:39.837Z,4.83
2019-02-24T03:03:06.573Z,5.80
2019-02-24T03:05:33.286Z,7.60
2019-02-24T03:08:06.934Z,5.10
2019-02-24T03:10:33.660Z,4.10
2019-02-24T03:13:00.398Z,4.83
2019-02-24T03:15:27.172Z,4.27
2019-02-24T03:17:53.875Z,6.28
2019-02-24T03:20:20.609Z,6.20
2019-02-24T03:22:47.430Z,5.93
2019-02-24T03:25:14.153Z,9.98
2019-02-24T03:27:40.885Z,9.93
2019-02-24T03:30:07.699Z,6.67
2019-02-24T03:32:34.419Z,7.50
2019-02-24T03:35:01.133Z,6.33
2019-02-24T03:37:27.862Z,10.23
2019-02-24T03:39:54.609Z,8.57
2019-02-24T03:42:21.331Z,9.33
2019-02-24T03:44:48.169Z,9.70
2019-02-24T03:47:14.898Z,10.93
2019-02-24T03:49:41.627Z,10.40
2019-02-24T03:52:08.338Z,10.75
2019-02-24T03:54:35.167Z,13.67
2019-02-24T03:57:01.985Z,12.45
2019-02-24T03:59:28.727Z,12.82
2019-02-24T04:01:55.445Z,17.23
2019-02-24T04:04:22.195Z,15.17
2019-02-24T04:06:48.909Z,12.93
2019-02-24T04:09:15.647Z,13.00
2019-02-24T04:11:42.358Z,14.30
2019-02-24T04:14:09.107Z,16.02
2019-02-24T04:16:35.826Z,15.63
2019-02-24T04:19:02.654Z,13.85
2019-02-24T04:21:29.361Z,14.80
2019-02-24T04:23:56.099Z,13.60
2019-02-24T04:26:22.821Z,18.10
2019-02-24T04:28:49.549Z,16.15
2019-02-24T04:31:16.293Z,13.57
2019-02-24T04:33:43.019Z,15.50
2019-02-24T04:36:09.742Z,15.78
2019-02-24T04:38:36.473Z,13.13
2019-02-24T04:41:03.211Z,15.25
2019-02-24T04:43:29.930Z,15.63
2019-02-24T04:45:56.674Z,15.70
2019-02-24T04:48:23.393Z,14.03
2019-02-24T04:50:50.150Z,15.05
2019-02-24T04:53:16.880Z,14.17
2019-02-24T04:55:43.619Z,13.30
2019-02-24T04:58:10.326Z,14.85
2019-02-24T05:00:37.065Z,13.20
2019-02-24T05:03:03.827Z,16.87
2019-02-24T05:05:30.538Z,16.00
2019-02-24T05:07:57.270Z,13.65
2019-02-24T05:10:24.005Z,16.30
2019-02-24T05:12:50.740Z,12.43
2019-02-24T05:15:17.494Z,12.23
2019-02-24T05:17:44.197Z,14.05
2019-02-24T05:20:10.947Z,14.63
2019-02-24T05:22:37.802Z,14.47
2019-02-24T05:25:04.652Z,15.40
2019-02-24T05:27:31.357Z,15.23
2019-02-24T05:29:58.102Z,14.30
2019-02-24T05:32:24.822Z,15.80
2019-02-24T05:34:51.567Z,17.17
2019-02-24T05:37:18.290Z,16.60
2019-02-24T05:39:45.014Z,15.40
2019-02-24T05:42:11.722Z,16.25
2019-02-24T05:44:38.462Z,14.97
2019-02-24T05:47:05.177Z,15.38
2019-02-24T05:49:32.471Z,15.88
2019-02-24T05:51:59.190Z,15.77
2019-02-24T05:54:25.944Z,15.35
2019-02-24T05:56:52.649Z,14.50
2019-02-24T05:59:19.378Z,15.43
2019-02-24T06:01:46.096Z,13.50
2019-02-24T06:04:12.890Z,14.95
2019-02-24T06:06:39.625Z,11.70
2019-02-24T06:09:07.076Z,10.90
2019-02-24T06:11:33.798Z,12.15
2019-02-24T06:14:00.532Z,12.00
2019-02-24T06:16:27.280Z,11.17
2019-02-24T06:18:54.074Z,13.10
2019-02-24T06:21:20.774Z,11.25
2019-02-24T06:23:47.518Z,13.03
2019-02-24T06:26:14.247Z,10.28
2019-02-24T06:28:40.981Z,13.93
2019-02-24T06:31:07.709Z,11.00
2019-02-24T06:33:34.463Z,10.82
2019-02-24T06:36:01.178Z,10.03
2019-02-24T06:38:27.914Z,15.13
2019-02-24T06:40:54.635Z,9.33
2019-02-24T06:43:21.362Z,9.55
2019-02-24T06:45:48.094Z,8.20
2019-02-24T06:48:14.880Z,10.48
2019-02-24T06:50:56.582Z,9.43
2019-02-24T06:53:23.326Z,10.90
2019-02-24T06:55:50.078Z,9.90
2019-02-24T06:58:18.413Z,10.58
2019-02-24T07:00:43.567Z,10.97
2019-02-24T07:03:10.352Z,9.10
2019-02-24T07:05:37.065Z,7.90
2019-02-24T07:08:03.814Z,10.05
2019-02-24T07:10:30.533Z,8.33
2019-02-24T07:12:57.282Z,10.72
2019-02-24T07:15:24.742Z,8.63
2019-02-24T07:20:13.057Z,9.00
2019-02-24T07:22:40.524Z,7.85
2019-02-24T07:25:07.250Z,8.50
2019-02-24T07:27:33.986Z,8.40
2019-02-24T07:30:00.709Z,9.38
2019-02-24T07:32:27.457Z,8.13
2019-02-24T07:34:54.177Z,6.30
2019-02-24T07:37:20.914Z,8.80
2019-02-24T07:39:47.658Z,8.25
2019-02-24T07:42:14.410Z,9.67
2019-02-24T07:44:41.953Z,7.80
2019-02-24T07:47:08.698Z,7.20
2019-02-24T07:49:35.416Z,8.30
2019-02-24T07:52:03.182Z,6.07
2019-02-24T07:54:29.893Z,8.45
2019-02-24T07:56:57.433Z,5.20
2019-02-24T07:59:24.141Z,6.75
2019-02-24T08:01:50.918Z,8.23
2019-02-24T08:04:18.690Z,7.53
2019-02-24T08:06:45.425Z,7.13
2019-02-24T08:09:12.166Z,8.77
2019-02-24T08:11:38.894Z,6.57
2019-02-24T08:14:06.301Z,8.70
2019-02-24T08:16:32.498Z,4.67
2019-02-24T08:18:59.234Z,6.00
2019-02-24T08:21:25.958Z,4.33
2019-02-24T08:23:52.714Z,5.70
2019-02-24T08:26:19.430Z,5.63
2019-02-24T08:28:46.169Z,5.20
2019-02-24T08:31:12.879Z,4.77
2019-02-24T08:33:39.674Z,6.20
2019-02-24T08:36:06.393Z,4.80
2019-02-24T08:38:33.117Z,3.70
2019-02-24T08:40:59.849Z,3.60
2019-02-24T08:43:26.634Z,4.30
2019-02-24T08:45:53.358Z,6.33
2019-02-24T08:48:20.077Z,6.00
2019-02-24T08:50:46.782Z,6.77
2019-02-24T08:53:13.525Z,3.33
2019-02-24T08:55:40.241Z,4.63
2019-02-24T08:58:07.098Z,4.50
2019-02-24T09:00:33.825Z,4.12
2019-02-24T09:03:00.556Z,5.10
2019-02-24T09:05:27.265Z,5.33
2019-02-24T09:07:54.042Z,4.93
2019-02-24T09:10:20.877Z,6.13
2019-02-24T09:12:47.613Z,5.07
2019-02-24T09:15:14.387Z,3.53
2019-02-24T09:17:41.124Z,5.40
2019-02-24T09:20:08.386Z,3.63
2019-02-24T09:22:35.174Z,5.30
2019-02-24T09:25:03.297Z,3.63
2019-02-24T09:27:28.666Z,3.63
2019-02-24T09:29:55.429Z,4.43
2019-02-24T09:32:22.157Z,7.43
2019-02-24T09:34:48.913Z,4.43
2019-02-24T09:37:15.633Z,4.17
2019-02-24T09:39:42.386Z,5.23
2019-02-24T09:42:09.106Z,3.90
2019-02-24T09:44:35.882Z,5.13
2019-02-24T09:47:02.607Z,3.80
2019-02-24T09:49:29.370Z,4.10
2019-02-24T09:51:56.089Z,4.30
2019-02-24T09:54:22.814Z,4.60
2019-02-24T09:56:49.547Z,5.00
2019-02-24T09:59:16.281Z,4.93
2019-02-24T10:01:43.038Z,3.20
2019-02-24T10:04:09.765Z,4.40
2019-02-24T10:06:36.486Z,4.03
2019-02-24T10:09:03.579Z,3.20
2019-02-24T10:11:30.304Z,4.50
2019-02-24T10:13:57.049Z,3.20
2019-02-24T10:16:23.787Z,4.03
2019-02-24T10:18:50.524Z,3.33
2019-02-24T10:21:17.246Z,3.90
2019-02-24T10:23:43.989Z,4.30
2019-02-24T10:26:10.729Z,6.03
2019-02-24T10:28:37.504Z,3.73
2019-02-24T10:31:04.222Z,6.83
2019-02-24T10:33:30.966Z,6.43
2019-02-24T10:35:57.698Z,6.97
2019-02-24T10:38:24.434Z,5.23
2019-02-24T10:40:51.161Z,5.10
2019-02-24T10:43:17.902Z,5.80
2019-02-24T10:45:44.630Z,6.20
2019-02-24T10:48:13.928Z,6.97
2019-02-24T10:50:38.094Z,4.27
2019-02-24T10:53:04.885Z,6.80
2019-02-24T10:55:31.617Z,3.33
2019-02-24T10:57:58.361Z,3.93
2019-02-24T11:00:25.244Z,3.63
2019-02-24T11:02:51.974Z,4.20
2019-02-24T11:05:18.723Z,3.73
2019-02-24T11:07:45.475Z,3.65
2019-02-24T11:10:12.194Z,3.33
2019-02-24T11:12:38.945Z,3.87
2019-02-24T11:15:05.733Z,3.03
2019-02-24T11:17:32.441Z,6.25
2019-02-24T11:19:59.181Z,2.90
2019-02-24T11:22:25.949Z,3.70
2019-02-24T11:24:52.685Z,3.10
2019-02-24T11:27:19.455Z,3.30
2019-02-24T11:29:46.137Z,3.40
2019-02-24T11:32:12.843Z,4.87
2019-02-24T11:34:39.585Z,5.33
2019-02-24T11:37:06.293Z,3.80
2019-02-24T11:39:33.042Z,3.00
2019-02-24T11:41:59.754Z,2.93
2019-02-24T11:44:26.482Z,3.83
2019-02-24T11:46:53.194Z,4.50
2019-02-24T11:49:19.926Z,3.43
2019-02-24T11:51:46.654Z,8.60
2019-02-24T11:54:13.373Z,5.03
2019-02-24T11:56:40.169Z,3.90
2019-02-24T11:59:06.909Z,5.50
2019-02-24T12:01:33.690Z,3.70
2019-02-24T12:04:00.413Z,4.50
2019-02-24T12:06:27.133Z,4.20
2019-02-24T12:08:53.870Z,3.27
2019-02-24T12:11:20.627Z,4.93
2019-02-24T12:13:47.322Z,2.70
2019-02-24T12:16:14.046Z,3.10
2019-02-24T12:18:40.778Z,4.03
2019-02-24T12:21:07.494Z,4.00
2019-02-24T12:23:34.221Z,2.93
2019-02-24T12:26:00.988Z,6.77
2019-02-24T12:28:27.743Z,3.30
2019-02-24T12:30:54.455Z,3.90
2019-02-24T12:33:21.171Z,5.27
2019-02-24T12:35:47.907Z,4.20
2019-02-24T12:38:14.625Z,3.13
2019-02-24T12:40:41.362Z,5.15
2019-02-24T12:43:08.104Z,3.10
2019-02-24T12:45:34.842Z,4.10
2019-02-24T12:48:01.566Z,3.90
2019-02-24T12:50:28.310Z,3.90
2019-02-24T12:52:55.045Z,5.47
2019-02-24T12:55:21.893Z,3.90
2019-02-24T12:57:48.610Z,3.10
2019-02-24T13:00:16.747Z,5.10
2019-02-24T13:02:43.485Z,5.73
2019-02-24T13:05:10.281Z,3.70
2019-02-24T13:07:36.993Z,4.20
2019-02-24T13:10:04.757Z,7.30
2019-02-24T13:12:31.482Z,4.47
2019-02-24T13:14:58.238Z,4.13
2019-02-24T13:17:24.962Z,4.43
2019-02-24T13:19:51.754Z,6.23
2019-02-24T13:22:18.485Z,4.60
2019-02-24T13:24:45.220Z,5.20
2019-02-24T13:27:11.942Z,4.73
2019-02-24T13:29:38.728Z,5.80
2019-02-24T13:32:14.396Z,4.23
2019-02-24T13:34:32.213Z,5.30
2019-02-24T13:36:58.928Z,5.30
2019-02-24T13:39:25.670Z,5.33
2019-02-24T13:41:52.490Z,7.20
2019-02-24T13:44:19.233Z,6.67
2019-02-24T13:46:45.945Z,8.30
2019-02-24T13:49:12.657Z,5.53
2019-02-24T13:51:39.393Z,6.33
2019-02-24T13:54:06.106Z,6.90
2019-02-24T13:56:32.842Z,6.17
2019-02-24T13:58:59.567Z,9.57
2019-02-24T14:01:26.301Z,8.10
2019-02-24T14:03:53.034Z,8.20
2019-02-24T14:06:20.429Z,6.43
2019-02-24T14:08:46.537Z,6.23
2019-02-24T14:11:13.282Z,6.07
2019-02-24T14:13:39.985Z,6.03
2019-02-24T14:16:06.759Z,5.30
2019-02-24T14:18:33.494Z,5.87
2019-02-24T14:21:00.247Z,5.83
2019-02-24T14:23:26.970Z,7.90
2019-02-24T14:25:53.707Z,5.70
2019-02-24T14:28:20.420Z,5.60
2019-02-24T14:30:47.156Z,7.00
2019-02-24T14:33:13.865Z,5.47
2019-02-24T14:35:40.687Z,5.63
2019-02-24T14:38:07.515Z,5.50
2019-02-24T14:40:34.254Z,6.13
2019-02-24T14:43:00.987Z,5.83
2019-02-24T14:45:27.723Z,4.73
2019-02-24T14:47:54.443Z,7.60
2019-02-24T14:50:21.178Z,6.27
2019-02-24T14:52:47.895Z,5.23
2019-02-24T14:55:14.672Z,4.23
2019-02-24T14:57:41.388Z,6.03
2019-02-24T15:00:09.798Z,6.13
2019-02-24T15:02:42.467Z,4.97
2019-02-24T15:05:03.669Z,6.10
2019-02-24T15:07:30.406Z,5.63
2019-02-24T15:09:57.122Z,4.53
2019-02-24T15:12:23.858Z,7.00
2019-02-24T15:14:50.574Z,6.08
2019-02-24T15:17:17.314Z,5.60
2019-02-24T15:19:44.037Z,4.70
2019-02-24T15:22:10.773Z,6.03
2019-02-24T15:24:37.534Z,4.47
2019-02-24T15:27:04.242Z,6.03
2019-02-24T15:29:30.974Z,6.90
2019-02-24T15:31:57.698Z,4.80
2019-02-24T15:34:24.454Z,8.03
2019-02-24T15:36:51.182Z,6.70
2019-02-24T15:39:17.921Z,5.50
2019-02-24T15:41:44.638Z,6.67
2019-02-24T15:44:11.401Z,5.50
2019-02-24T15:46:38.114Z,6.87
2019-02-24T15:49:04.862Z,5.40
2019-02-24T15:51:31.573Z,5.90
2019-02-24T15:53:58.306Z,5.63
2019-02-24T15:56:25.109Z,7.60
2019-02-24T15:58:51.842Z,8.70
2019-02-24T16:01:18.618Z,4.40
2019-02-24T16:03:45.369Z,4.23
2019-02-24T16:06:12.107Z,6.53
2019-02-24T16:08:38.842Z,7.37
2019-02-24T16:11:05.566Z,11.00
2019-02-24T16:13:32.301Z,6.40
2019-02-24T16:15:59.018Z,6.43
2019-02-24T16:18:25.758Z,6.50
2019-02-24T16:20:52.470Z,6.50
2019-02-24T16:23:19.242Z,8.40
2019-02-24T16:25:46.017Z,11.93
2019-02-24T16:28:12.750Z,9.10
2019-02-24T16:30:39.477Z,7.30
2019-02-24T16:33:10.581Z,6.07
2019-02-24T16:35:32.962Z,14.93
2019-02-24T16:37:59.708Z,5.60
2019-02-24T16:40:26.449Z,6.07
2019-02-24T16:42:53.162Z,10.43
2019-02-24T16:45:21.004Z,8.40
2019-02-24T16:47:47.733Z,5.20
2019-02-24T16:50:15.056Z,5.97
2019-02-24T16:52:41.761Z,5.23
2019-02-24T16:55:09.378Z,5.30
2019-02-24T16:57:36.218Z,7.05
2019-02-24T17:00:03.666Z,8.10
2019-02-24T17:02:30.394Z,9.57
2019-02-24T17:04:57.130Z,6.77
2019-02-24T17:07:23.859Z,8.77
2019-02-24T17:09:50.595Z,6.80
2019-02-24T17:12:17.798Z,8.57
2019-02-24T17:14:44.522Z,6.93
2019-02-24T17:17:11.350Z,9.20
2019-02-24T17:19:38.077Z,7.90
2019-02-24T17:22:04.797Z,8.10
2019-02-24T17:24:31.625Z,10.63
2019-02-24T17:26:58.346Z,7.30
2019-02-24T17:29:25.152Z,5.57
2019-02-24T17:31:51.846Z,8.30
2019-02-24T17:34:18.607Z,5.83
2019-02-24T17:36:45.333Z,5.85
2019-02-24T17:39:12.078Z,6.83
2019-02-24T17:41:38.983Z,7.27
2019-02-24T17:44:05.811Z,7.93
2019-02-24T17:46:32.639Z,5.87
2019-02-24T17:48:59.402Z,5.97
2019-02-24T17:51:26.125Z,5.10
2019-02-24T17:53:52.871Z,8.37
2019-02-24T17:56:19.706Z,6.80
2019-02-24T17:58:46.458Z,8.57
2019-02-24T18:01:13.314Z,10.53
2019-02-24T18:03:40.142Z,10.07
2019-02-24T18:06:06.885Z,9.67
2019-02-24T18:08:33.605Z,8.30
2019-02-24T18:11:00.355Z,9.17
2019-02-24T18:13:27.239Z,9.10
2019-02-24T18:15:53.982Z,9.20
2019-02-24T18:18:20.770Z,6.60
2019-02-24T18:20:47.507Z,9.60
2019-02-24T18:23:14.229Z,9.83
2019-02-24T18:25:41.034Z,7.53
2019-02-24T18:28:07.832Z,7.17
2019-02-24T18:30:34.565Z,19.57
2019-02-24T18:33:01.282Z,10.47
2019-02-24T18:35:28.074Z,8.30
2019-02-24T18:37:54.901Z,11.07
2019-02-24T18:40:21.642Z,9.13
2019-02-24T18:42:48.626Z,10.40
2019-02-24T18:45:15.364Z,11.50
2019-02-24T18:47:42.167Z,11.27
2019-02-24T18:50:09.638Z,9.57
2019-02-24T18:52:36.373Z,8.37
2019-02-24T18:55:03.251Z,9.30
2019-02-24T18:57:29.970Z,11.30
2019-02-24T18:59:56.734Z,9.60
2019-02-24T19:02:23.480Z,6.10
2019-02-24T19:04:50.242Z,6.40
2019-02-24T19:07:17.329Z,6.30
2019-02-24T19:09:44.093Z,11.00
2019-02-24T19:12:10.918Z,7.60
2019-02-24T19:14:38.318Z,7.73
2019-02-24T19:17:05.062Z,6.90
2019-02-24T19:19:31.851Z,6.80
2019-02-24T19:21:58.884Z,6.70
2019-02-24T19:24:25.722Z,7.72
2019-02-24T19:26:52.478Z,9.93
2019-02-24T19:29:19.224Z,6.93
2019-02-24T19:31:45.986Z,12.83
2019-02-24T19:34:12.819Z,5.93
2019-02-24T19:36:39.490Z,10.60
2019-02-24T19:39:06.222Z,7.00
2019-02-24T19:41:33.193Z,7.67
2019-02-24T19:43:59.928Z,7.73
2019-02-24T19:46:26.710Z,6.30
2019-02-24T19:48:53.451Z,12.57
2019-02-24T19:51:20.213Z,11.83
2019-02-24T19:53:46.961Z,8.97
2019-02-24T19:56:13.713Z,7.13
2019-02-24T19:58:41.666Z,7.20
2019-02-24T20:01:08.425Z,6.37
2019-02-24T20:03:35.184Z,7.07
2019-02-24T20:06:01.964Z,7.40
2019-02-24T20:08:28.709Z,7.83
2019-02-24T20:10:55.480Z,7.40
2019-02-24T20:13:22.230Z,5.47
2019-02-24T20:15:49.006Z,6.80
2019-02-24T20:18:15.884Z,6.47
2019-02-24T20:20:42.657Z,7.60
2019-02-24T20:23:09.382Z,7.70
2019-02-24T20:25:36.135Z,9.43
2019-02-24T20:28:02.884Z,9.43
2019-02-24T20:30:29.692Z,8.97
2019-02-24T20:32:56.426Z,8.30
2019-02-24T20:35:23.202Z,7.43
2019-02-24T20:37:50.396Z,7.00
2019-02-24T20:40:17.147Z,8.08
2019-02-24T20:42:43.903Z,7.40
2019-02-24T20:45:11.760Z,7.83
2019-02-24T20:47:38.509Z,7.27
2019-02-24T20:50:07.439Z,7.33
2019-02-24T20:52:34.511Z,7.87
2019-02-24T20:55:01.960Z,7.67
2019-02-24T20:57:28.717Z,8.90
2019-02-24T20:59:55.472Z,7.10
2019-02-24T21:02:22.206Z,7.60
2019-02-24T21:04:49.248Z,8.20
2019-02-24T21:07:16.010Z,10.03
2019-02-24T21:09:43.253Z,10.90
2019-02-24T21:12:09.536Z,8.10
2019-02-24T21:14:36.274Z,10.97
2019-02-24T21:17:03.543Z,9.70
2019-02-24T21:19:30.304Z,9.60
2019-02-24T21:21:57.593Z,10.27
2019-02-24T21:24:24.319Z,8.50
2019-02-24T21:26:51.791Z,7.83
2019-02-24T21:29:18.550Z,7.13
2019-02-24T21:31:45.317Z,6.83
2019-02-24T21:34:12.075Z,7.10
2019-02-24T21:36:38.845Z,8.90
2019-02-24T21:39:05.914Z,6.73
2019-02-24T21:41:32.666Z,8.83
2019-02-24T21:43:59.414Z,7.40
2019-02-24T21:46:26.178Z,7.13
2019-02-24T21:48:53.072Z,8.37
2019-02-24T21:51:19.838Z,8.37
2019-02-24T21:53:46.570Z,9.97
2019-02-24T21:56:13.422Z,8.10
2019-02-24T21:58:40.146Z,7.70
2019-02-24T22:01:06.887Z,9.07
2019-02-24T22:03:35.198Z,8.03
2019-02-24T22:06:02.021Z,8.53
2019-02-24T22:08:28.779Z,7.43
2019-02-24T22:10:55.539Z,9.63
2019-02-24T22:13:22.294Z,12.07
2019-02-24T22:15:49.064Z,12.87
2019-02-24T22:18:15.820Z,11.40
2019-02-24T22:20:42.569Z,11.30
2019-02-24T22:23:09.306Z,8.00
2019-02-24T22:25:36.119Z,10.70
2019-02-24T22:28:03.088Z,8.40
2019-02-24T22:30:30.175Z,10.28
2019-02-24T22:32:56.930Z,10.13
2019-02-24T22:35:23.766Z,10.87
2019-02-24T22:37:51.144Z,8.13
2019-02-24T22:40:17.870Z,7.93
2019-02-24T22:42:44.631Z,9.27
2019-02-24T22:45:12.615Z,7.37
2019-02-24T22:47:39.954Z,7.80
2019-02-24T22:50:06.838Z,7.37
2019-02-24T22:52:34.151Z,6.87
2019-02-24T22:55:00.883Z,8.07
2019-02-24T22:57:27.642Z,7.33
2019-02-24T22:59:54.680Z,8.80
2019-02-24T23:02:21.791Z,6.90
2019-02-24T23:04:48.530Z,7.58
2019-02-24T23:07:19.902Z,10.23
2019-02-24T23:09:45.937Z,6.93
2019-02-24T23:12:12.690Z,7.65
2019-02-24T23:14:39.418Z,9.10
2019-02-24T23:17:06.216Z,10.13
2019-02-24T23:19:32.962Z,8.13
2019-02-24T23:21:59.717Z,10.10
2019-02-24T23:24:26.452Z,9.50
2019-02-24T23:26:53.268Z,10.67
2019-02-24T23:29:19.922Z,7.87
2019-02-24T23:31:46.776Z,6.93
2019-02-24T23:34:13.513Z,12.23
2019-02-24T23:36:40.291Z,6.77
2019-02-24T23:39:07.448Z,9.10
2019-02-24T23:41:34.177Z,7.90
2019-02-24T23:44:00.929Z,9.37
2019-02-24T23:46:27.728Z,7.40
2019-02-24T23:48:54.449Z,6.67
2019-02-24T23:51:21.170Z,8.53
2019-02-24T23:53:47.922Z,7.37
2019-02-24T23:56:14.712Z,9.23
2019-02-24T23:58:41.443Z,9.80
